Time;durP1;ratioP1;P1;durP2;ratioP2;P2;SDS_P1;SDS_P2;PMS_P1;PMS_P2;Temp;Humidity;BMP_temperature;BMP_pressure;BME280_temperature;BME280_humidity;BME280_pressure;Samples;Min_cycle;Max_cycle;Signal;HPM_P1;HPM_P2
2023/03/16 00:00:31;;;;;;;0.50;0.50;;;;;;;11.39;100.00;100025.63;2624267;54;20149;-58
2023/03/16 00:03:02;;;;;;;2.93;1.73;;;;;;;11.26;100.00;100017.94;2624351;54;20188;-55
2023/03/16 00:05:32;;;;;;;4.50;4.10;;;;;;;10.96;100.00;100014.97;2624597;54;20158;-55
2023/03/16 00:08:02;;;;;;;0.93;0.93;;;;;;;11.58;100.00;100017.28;2624305;54;20193;-55
2023/03/16 00:10:32;;;;;;;4.27;3.47;;;;;;;11.63;100.00;100021.22;2624214;54;20160;-56
2023/03/16 00:13:05;;;;;;;2.30;1.27;;;;;;;11.45;100.00;100012.19;2624319;54;20197;-57
2023/03/16 00:15:35;;;;;;;12.17;3.47;;;;;;;11.14;100.00;100012.81;2624534;54;20141;-59
2023/03/16 00:18:06;;;;;;;3.20;2.07;;;;;;;11.42;100.00;100019.38;2624370;54;20197;-53
2023/03/16 00:20:36;;;;;;;5.23;4.67;;;;;;;11.78;100.00;100021.03;2624622;54;20141;-53
2023/03/16 00:23:06;;;;;;;2.00;1.90;;;;;;;11.32;100.00;100027.00;2624041;54;20192;-56
2023/03/16 00:25:36;;;;;;;4.70;2.27;;;;;;;11.27;100.00;100021.34;2624514;54;20153;-52
2023/03/16 00:28:12;;;;;;;3.87;3.33;;;;;;;11.19;100.00;100010.72;2624268;54;20203;-57
2023/03/16 00:30:46;;;;;;;7.30;1.13;;;;;;;11.48;100.00;100013.72;2624649;54;20153;-56
2023/03/16 00:33:16;;;;;;;8.23;4.90;;;;;;;11.47;100.00;100012.06;2624402;54;20177;-56
2023/03/16 00:35:49;;;;;;;6.90;2.47;;;;;;;11.16;100.00;100006.53;2624156;54;20150;-56
2023/03/16 00:38:20;;;;;;;3.87;3.43;;;;;;;11.11;100.00;100011.25;2624292;54;20224;-58
2023/03/16 00:40:51;;;;;;;5.70;3.93;;;;;;;11.22;100.00;100010.47;2624597;54;20142;-58
2023/03/16 00:43:26;;;;;;;2.63;2.30;;;;;;;11.57;100.00;100016.47;2624592;54;20184;-59
2023/03/16 00:46:05;;;;;;;2.90;2.50;;;;;;;11.53;100.00;100009.84;2624467;54;20159;-59
2023/03/16 00:48:36;;;;;;;10.87;6.13;;;;;;;11.52;100.00;100008.19;2624018;54;20177;-56
2023/03/16 00:51:08;;;;;;;3.33;3.23;;;;;;;11.62;100.00;100014.34;2624182;54;20157;-57
2023/03/16 00:53:38;;;;;;;2.80;1.57;;;;;;;11.66;100.00;100033.13;2624138;54;20798;-55
2023/03/16 00:56:10;;;;;;;0.23;0.23;;;;;;;12.57;100.00;100039.91;2624213;54;20173;-58
2023/03/16 00:58:44;;;;;;;0.00;0.00;;;;;;;12.90;100.00;100039.00;2624203;54;20203;-54
2023/03/16 01:01:17;;;;;;;1.23;0.80;;;;;;;12.85;100.00;100035.94;2623491;54;20154;-55
2023/03/16 01:03:48;;;;;;;0.73;0.30;;;;;;;12.88;100.00;100033.09;2624060;47;20185;-56
2023/03/16 01:06:19;;;;;;;0.83;0.83;;;;;;;12.66;100.00;100030.56;2624679;39;20292;-56
2023/03/16 01:08:51;;;;;;;1.60;1.50;;;;;;;13.13;100.00;100038.00;2623961;54;20188;-53
2023/03/16 01:11:24;;;;;;;11.95;6.10;;;;;;;13.11;100.00;100019.09;2624229;54;20157;-57
2023/03/16 01:13:57;;;;;;;0.50;0.50;;;;;;;12.99;100.00;100029.63;2623421;54;20344;-56
2023/03/16 01:16:27;;;;;;;0.10;0.10;;;;;;;13.44;100.00;100023.28;2624119;54;20157;-58
2023/03/16 01:18:58;;;;;;;0.00;0.00;;;;;;;13.44;100.00;100025.09;2623981;54;20212;-59
2023/03/16 01:21:28;;;;;;;1.08;1.08;;;;;;;12.96;100.00;100029.88;2624147;54;20184;-54
2023/03/16 01:23:59;;;;;;;0.50;0.50;;;;;;;12.74;100.00;100030.78;2623953;54;20219;-58
2023/03/16 01:26:29;;;;;;;1.30;1.30;;;;;;;12.27;100.00;100025.88;2624217;54;20138;-55
2023/03/16 01:29:01;;;;;;;1.23;0.80;;;;;;;12.21;100.00;100027.16;2623854;54;20197;-58
2023/03/16 01:31:31;;;;;;;2.03;1.67;;;;;;;12.15;100.00;100025.91;2624213;54;20196;-58
2023/03/16 01:34:03;;;;;;;0.33;0.33;;;;;;;12.19;100.00;100029.09;2623965;54;20254;-58
2023/03/16 01:36:33;;;;;;;1.53;1.50;;;;;;;12.03;100.00;100028.59;2623967;54;20144;-56
2023/03/16 01:39:05;;;;;;;1.47;1.37;;;;;;;11.92;100.00;100026.81;2624119;54;20181;-57
2023/03/16 01:41:35;;;;;;;8.23;6.60;;;;;;;11.04;100.00;100032.56;2624229;54;20141;-55
2023/03/16 01:44:10;;;;;;;6.07;4.50;;;;;;;10.31;100.00;100032.63;2624444;39;20629;-58
2023/03/16 01:46:42;;;;;;;4.27;2.53;;;;;;;10.51;100.00;100039.03;2624058;54;20149;-55
2023/03/16 01:49:16;;;;;;;1.67;1.57;;;;;;;10.62;100.00;100031.31;2624048;39;20332;-58
2023/03/16 01:51:51;;;;;;;1.00;0.90;;;;;;;10.62;100.00;100050.28;2624183;46;20158;-55
2023/03/16 01:54:27;;;;;;;3.07;2.63;;;;;;;10.86;100.00;100047.72;2623798;54;20215;-58
2023/03/16 01:57:03;;;;;;;5.20;2.47;;;;;;;10.52;100.00;100057.03;2624142;47;20172;-58
2023/03/16 01:59:41;;;;;;;1.07;0.97;;;;;;;10.37;100.00;100063.31;2624081;54;20180;-58
2023/03/16 02:02:15;;;;;;;0.57;0.57;;;;;;;10.29;100.00;100063.84;2623707;54;20184;-58
2023/03/16 02:04:50;;;;;;;9.73;7.40;;;;;;;9.71;100.00;100058.31;2624054;54;20423;-56
2023/03/16 02:07:24;;;;;;;2.17;2.07;;;;;;;9.59;100.00;100078.09;2624009;54;20153;-59
2023/03/16 02:09:59;;;;;;;4.40;4.03;;;;;;;9.67;100.00;100086.19;2624037;47;20158;-59
2023/03/16 02:12:30;;;;;;;3.73;2.70;;;;;;;9.78;100.00;100075.97;2623939;47;20157;-56
2023/03/16 02:15:03;;;;;;;4.43;2.50;;;;;;;9.88;100.00;100074.41;2624381;31;20465;-54
2023/03/16 02:17:35;;;;;;;13.17;7.50;;;;;;;9.94;100.00;100080.09;2623934;54;20477;-54
2023/03/16 02:20:24;;;;;;;3.10;2.90;;;;;;;10.05;100.00;100087.97;2624128;54;20164;-57
2023/03/16 02:22:56;;;;;;;12.67;5.87;;;;;;;9.95;100.00;100084.38;2623897;54;20287;-58
2023/03/16 02:25:31;;;;;;;6.80;3.93;;;;;;;9.70;100.00;100080.81;2623786;54;20422;-57
2023/03/16 02:28:09;;;;;;;5.73;4.07;;;;;;;9.31;100.00;100088.56;2623765;54;20193;-54
2023/03/16 02:30:42;;;;;;;7.20;5.00;;;;;;;9.11;100.00;100079.50;2624075;54;20217;-58
2023/03/16 02:33:15;;;;;;;3.23;2.97;;;;;;;9.20;100.00;100078.94;2624044;47;20196;-54
2023/03/16 02:35:45;;;;;;;2.63;2.43;;;;;;;9.23;100.00;100077.88;2624314;54;20142;-61
2023/03/16 02:38:15;;;;;;;7.13;3.43;;;;;;;9.19;100.00;100060.91;2623670;54;20181;-52
2023/03/16 02:40:47;;;;;;;3.50;3.20;;;;;;;9.51;100.00;100071.78;2623954;51;20141;-56
2023/03/16 02:43:22;;;;;;;3.17;2.40;;;;;;;9.63;100.00;100083.91;2623653;54;20192;-55
2023/03/16 02:45:58;;;;;;;1.67;1.60;;;;;;;9.49;100.00;100071.88;2624360;39;20331;-57
2023/03/16 02:48:34;;;;;;;7.20;6.57;;;;;;;9.40;100.00;100080.22;2623791;47;20181;-55
2023/03/16 02:51:04;;;;;;;2.57;2.37;;;;;;;9.29;100.00;100085.28;2623605;47;20168;-57
2023/03/16 02:53:34;;;;;;;1.10;1.10;;;;;;;9.00;100.00;100088.88;2623430;54;20201;-57
2023/03/16 02:56:04;;;;;;;10.93;3.80;;;;;;;9.02;100.00;100087.03;2623776;47;20157;-59
2023/03/16 02:58:35;;;;;;;8.30;5.20;;;;;;;9.07;100.00;100096.16;2623631;54;20188;-55
2023/03/16 03:01:08;;;;;;;1.27;0.93;;;;;;;9.00;100.00;100088.88;2623959;54;20148;-53
2023/03/16 03:03:38;;;;;;;4.90;3.40;;;;;;;9.15;100.00;100091.31;2623216;54;20185;-55
2023/03/16 03:06:08;;;;;;;7.53;5.60;;;;;;;9.27;100.00;100095.72;2623945;54;20142;-57
2023/03/16 03:08:38;;;;;;;7.67;2.23;;;;;;;9.57;100.00;100098.09;2623609;54;20181;-58
2023/03/16 03:11:09;;;;;;;4.47;2.63;;;;;;;10.01;100.00;100102.91;2623724;54;20161;-54
2023/03/16 03:13:43;;;;;;;6.93;2.83;;;;;;;10.29;100.00;100086.34;2623627;54;20196;-54
2023/03/16 03:16:16;;;;;;;0.83;0.43;;;;;;;10.65;100.00;100094.16;2623417;54;20152;-58
2023/03/16 03:18:46;;;;;;;1.70;1.40;;;;;;;10.55;100.00;100087.94;2623601;47;20197;-57
2023/03/16 03:21:17;;;;;;;6.50;3.27;;;;;;;10.39;100.00;100102.91;2623791;54;20157;-56
2023/03/16 03:23:47;;;;;;;8.80;4.50;;;;;;;10.50;100.00;100104.78;2623213;54;20197;-56
2023/03/16 03:26:18;;;;;;;0.83;0.53;;;;;;;10.88;100.00;100095.13;2624046;39;20308;-57
2023/03/16 03:28:49;;;;;;;0.10;0.10;;;;;;;11.48;100.00;100104.63;2622843;47;20197;-57
2023/03/16 03:31:23;;;;;;;0.00;0.00;;;;;;;11.49;100.00;100107.13;2624216;39;20320;-58
2023/03/16 03:33:54;;;;;;;0.10;0.10;;;;;;;11.76;100.00;100106.88;2624213;31;20354;-54
2023/03/16 03:36:24;;;;;;;0.00;0.00;;;;;;;12.15;100.00;100116.06;2623767;54;20165;-57
2023/03/16 03:38:56;;;;;;;1.70;1.60;;;;;;;11.98;100.00;100119.13;2623975;54;20187;-57
2023/03/16 03:41:26;;;;;;;0.00;0.00;;;;;;;12.19;100.00;100115.72;2624309;54;20169;-57
2023/03/16 03:43:56;;;;;;;0.40;0.40;;;;;;;12.18;100.00;100121.03;2625198;31;20445;-55
2023/03/16 03:46:29;;;;;;;0.93;0.83;;;;;;;11.97;100.00;100117.44;2624570;54;20158;-54
2023/03/16 03:49:02;;;;;;;0.80;0.70;;;;;;;11.51;100.00;100128.63;2624360;54;20532;-54
2023/03/16 03:51:33;;;;;;;1.83;1.47;;;;;;;11.12;100.00;100121.94;2623280;54;20181;-56
2023/03/16 03:54:03;;;;;;;5.93;5.43;;;;;;;10.70;100.00;100130.16;2623913;54;20249;-58
2023/03/16 03:56:33;;;;;;;1.60;1.00;;;;;;;10.71;100.00;100124.84;2624567;39;20327;-55
2023/03/16 03:59:03;;;;;;;2.87;1.43;;;;;;;10.49;100.00;100129.88;2623883;54;20195;-60
2023/03/16 04:01:36;;;;;;;5.77;4.27;;;;;;;10.77;100.00;100123.59;2624023;54;20495;-57
2023/03/16 04:04:06;;;;;;;4.23;2.00;;;;;;;10.98;100.00;100131.66;2623913;47;20193;-60
2023/03/16 04:06:36;;;;;;;6.40;4.43;;;;;;;11.07;100.00;100131.81;2624401;47;20157;-55
2023/03/16 04:09:06;;;;;;;3.43;1.77;;;;;;;11.07;100.00;100131.81;2624395;54;20204;-59
2023/03/16 04:11:36;;;;;;;1.03;0.87;;;;;;;11.25;100.00;100145.25;2624723;54;20157;-56
2023/03/16 04:14:07;;;;;;;2.73;2.53;;;;;;;11.11;100.00;100143.63;2624456;54;20197;-57
2023/03/16 04:16:39;;;;;;;2.87;1.80;;;;;;;11.13;100.00;100153.94;2624064;54;20149;-59
2023/03/16 04:19:10;;;;;;;1.67;1.60;;;;;;;11.19;100.00;100137.94;2624565;54;20185;-55
2023/03/16 04:21:40;;;;;;;4.43;2.03;;;;;;;11.28;100.00;100139.84;2624556;46;20225;-54
2023/03/16 04:24:13;;;;;;;3.30;2.77;;;;;;;11.20;100.00;100139.56;2624259;54;20173;-57
2023/03/16 04:26:43;;;;;;;4.40;1.90;;;;;;;11.05;100.00;100145.84;2624444;46;20141;-57
2023/03/16 04:29:16;;;;;;;0.00;0.00;;;;;;;10.82;100.00;100147.47;2623998;54;20186;-57
2023/03/16 04:31:49;;;;;;;1.03;1.03;;;;;;;11.03;100.00;100148.53;2624440;54;20141;-54
2023/03/16 04:34:23;;;;;;;0.20;0.20;;;;;;;11.30;100.00;100152.72;2624229;54;20188;-55
2023/03/16 04:36:53;;;;;;;3.97;3.67;;;;;;;11.24;100.00;100144.44;2624385;54;20158;-67
2023/03/16 04:39:24;;;;;;;0.57;0.53;;;;;;;11.19;100.00;100145.72;2624619;54;20181;-53
2023/03/16 04:41:54;;;;;;;5.80;5.13;;;;;;;11.06;100.00;100158.72;2624335;54;20178;-57
2023/03/16 04:44:25;;;;;;;8.47;4.93;;;;;;;10.86;100.00;100163.66;2624422;54;20204;-56
2023/03/16 04:46:57;;;;;;;4.57;3.33;;;;;;;10.63;100.00;100166.06;2625147;54;20157;-53
2023/03/16 04:49:28;;;;;;;1.23;1.13;;;;;;;10.77;100.00;100165.13;2623903;54;20450;-57
2023/03/16 04:51:58;;;;;;;5.00;3.70;;;;;;;10.72;100.00;100168.03;2624076;54;20146;-54
2023/03/16 04:54:28;;;;;;;5.00;3.93;;;;;;;10.73;100.00;100169.69;2623452;47;20199;-56
2023/03/16 04:56:58;;;;;;;4.33;3.57;;;;;;;10.79;100.00;100169.25;2624141;47;20157;-57
2023/03/16 04:59:29;;;;;;;7.60;3.50;;;;;;;10.72;100.00;100173.22;2623859;54;20193;-57
2023/03/16 05:02:02;;;;;;;1.60;1.43;;;;;;;11.00;100.00;100172.13;2624219;54;20138;-58
2023/03/16 05:04:33;;;;;;;6.03;2.50;;;;;;;11.30;100.00;100170.91;2623837;54;20169;-54
2023/03/16 05:07:03;;;;;;;0.20;0.20;;;;;;;10.96;100.00;100170.69;2623491;54;20149;-59
2023/03/16 05:09:33;;;;;;;0.00;0.00;;;;;;;11.31;100.00;100183.78;2623730;54;20184;-57
2023/03/16 05:12:04;;;;;;;3.30;2.73;;;;;;;11.35;100.00;100185.22;2624248;47;20169;-57
2023/03/16 05:14:34;;;;;;;0.23;0.23;;;;;;;11.45;100.00;100191.41;2623506;54;20180;-56
2023/03/16 05:17:07;;;;;;;0.40;0.40;;;;;;;11.60;100.00;100195.50;2624217;54;20149;-57
2023/03/16 05:19:37;;;;;;;2.90;0.93;;;;;;;11.33;100.00;100192.28;2623728;54;20203;-55
2023/03/16 05:22:08;;;;;;;5.17;3.17;;;;;;;11.39;100.00;100204.84;2624067;54;20165;-55
2023/03/16 05:24:39;;;;;;;9.33;4.90;;;;;;;11.31;100.00;100208.94;2624023;54;20145;-56
2023/03/16 05:27:09;;;;;;;3.03;1.47;;;;;;;11.26;100.00;100207.47;2623579;54;20158;-56
2023/03/16 05:29:39;;;;;;;1.60;1.23;;;;;;;11.41;100.00;100205.56;2623730;54;20150;-56
2023/03/16 05:32:12;;;;;;;3.33;1.27;;;;;;;11.31;100.00;100191.59;2623858;54;20173;-59
2023/03/16 05:34:43;;;;;;;3.13;2.77;;;;;;;11.47;100.00;100202.53;2623997;54;20153;-55
2023/03/16 05:37:13;;;;;;;6.83;2.83;;;;;;;11.41;100.00;100202.13;2623991;54;20153;-57
2023/03/16 05:39:43;;;;;;;3.40;1.27;;;;;;;11.54;100.00;100210.72;2624201;54;20443;-58
2023/03/16 05:42:13;;;;;;;0.80;0.80;;;;;;;11.77;100.00;100211.66;2624156;39;20367;-54
2023/03/16 05:44:43;;;;;;;2.00;1.37;;;;;;;12.18;100.00;100217.25;2624337;54;20169;-54
2023/03/16 05:47:16;;;;;;;0.83;0.83;;;;;;;11.86;100.00;100213.59;2623490;54;20166;-55
2023/03/16 05:49:46;;;;;;;6.33;3.37;;;;;;;11.73;100.00;100221.47;2623638;39;20620;-57
2023/03/16 05:52:17;;;;;;;0.10;0.10;;;;;;;11.67;100.00;100222.69;2623616;47;20145;-60
2023/03/16 05:54:47;;;;;;;0.00;0.00;;;;;;;11.86;100.00;100226.59;2623560;47;20205;-56
2023/03/16 05:57:17;;;;;;;0.57;0.50;;;;;;;11.87;100.00;100228.25;2623497;39;20339;-58
2023/03/16 05:59:48;;;;;;;1.57;1.47;;;;;;;12.10;100.00;100238.63;2622986;54;20426;-54
2023/03/16 06:02:21;;;;;;;4.60;0.60;;;;;;;12.02;100.00;100232.34;2622688;54;20160;-54
2023/03/16 06:04:51;;;;;;;1.87;1.70;;;;;;;12.02;100.00;100237.53;2623067;47;20161;-55
2023/03/16 06:07:22;;;;;;;11.77;5.93;;;;;;;11.66;100.00;100249.63;2622380;47;20157;-56
2023/03/16 06:09:52;;;;;;;5.70;2.50;;;;;;;11.20;100.00;100252.03;2623137;54;20164;-56
2023/03/16 06:12:22;;;;;;;1.13;1.03;;;;;;;11.05;100.00;100258.31;2623811;39;20327;-60
2023/03/16 06:14:52;;;;;;;0.87;0.83;;;;;;;10.55;100.00;100263.53;2624390;52;20487;-60
2023/03/16 06:17:25;;;;;;;1.93;1.83;;;;;;;10.18;100.00;100272.91;2624130;54;20163;-61
2023/03/16 06:19:55;;;;;;;4.20;2.47;;;;;;;10.36;100.00;100276.84;2623853;54;20252;-56
2023/03/16 06:22:25;;;;;;;1.73;1.63;;;;;;;10.05;100.00;100278.00;2623919;54;20148;-64
2023/03/16 06:24:55;;;;;;;16.77;3.73;;;;;;;10.35;100.00;100283.00;2624417;54;20143;-59
2023/03/16 06:27:27;;;;;;;2.07;0.57;;;;;;;10.86;100.00;100288.22;2623888;47;20405;-55
2023/03/16 06:29:57;;;;;;;1.30;1.30;;;;;;;11.25;100.00;100285.47;2623995;54;20158;-57
2023/03/16 06:32:30;;;;;;;4.47;1.60;;;;;;;11.48;100.00;100276.91;2623609;39;20349;-56
2023/03/16 06:35:02;;;;;;;1.87;1.77;;;;;;;10.43;100.00;100280.69;2623911;47;20145;-56
2023/03/16 06:37:33;;;;;;;0.87;0.87;;;;;;;9.93;100.00;100302.13;2623880;54;20255;-56
2023/03/16 06:40:03;;;;;;;5.43;2.13;;;;;;;10.08;100.00;100316.69;2623974;54;20145;-55
2023/03/16 06:42:33;;;;;;;1.90;1.80;;;;;;;9.73;100.00;100311.16;2623755;54;20197;-59
2023/03/16 06:45:03;;;;;;;4.53;4.00;;;;;;;9.55;100.00;100317.47;2623616;47;20154;-57
2023/03/16 06:47:36;;;;;;;1.70;1.00;;;;;;;9.76;100.00;100323.91;2624029;39;20399;-59
2023/03/16 06:50:07;;;;;;;3.80;2.90;;;;;;;9.97;100.00;100326.06;2624074;54;20270;-54
2023/03/16 06:52:37;;;;;;;5.63;3.13;;;;;;;10.45;100.00;100333.31;2623752;54;20177;-55
2023/03/16 06:55:09;;;;;;;1.03;0.83;;;;;;;10.46;100.00;100331.56;2623796;54;20201;-59
2023/03/16 06:57:39;;;;;;;1.53;1.27;;;;;;;10.40;100.00;100337.13;2623395;54;20181;-57
2023/03/16 07:00:12;;;;;;;3.20;2.90;;;;;;;10.56;100.00;100343.81;2623889;54;20193;-58
2023/03/16 07:02:45;;;;;;;4.43;4.00;;;;;;;10.32;100.00;100342.81;2623368;47;20188;-53
2023/03/16 07:05:15;;;;;;;4.70;2.20;;;;;;;10.44;100.00;100342.00;2623887;54;20150;-58
2023/03/16 07:07:46;;;;;;;6.00;3.57;;;;;;;10.10;100.00;100350.28;2623658;47;20320;-58
2023/03/16 07:10:18;;;;;;;3.30;3.00;;;;;;;9.96;100.00;100352.91;2623708;54;20157;-57
2023/03/16 07:12:49;;;;;;;6.73;4.83;;;;;;;9.81;100.00;100355.53;2623890;54;20173;-55
2023/03/16 07:15:19;;;;;;;5.10;2.53;;;;;;;9.56;100.00;100350.22;2624677;47;20141;-54
2023/03/16 07:17:52;;;;;;;5.67;1.83;;;;;;;10.16;100.00;100360.28;2624606;46;20177;-54
2023/03/16 07:20:22;;;;;;;0.43;0.40;;;;;;;11.04;100.00;100365.66;2624446;54;20149;-65
2023/03/16 07:22:53;;;;;;;8.37;5.43;;;;;;;10.72;100.00;100369.56;2624956;54;20451;-57
2023/03/16 07:25:23;;;;;;;4.57;3.00;;;;;;;10.34;100.00;100366.91;2624352;54;20157;-57
2023/03/16 07:27:53;;;;;;;2.80;2.57;;;;;;;10.67;100.00;100364.69;2624405;54;20181;-55
2023/03/16 07:30:24;;;;;;;1.20;1.17;;;;;;;10.96;100.00;100351.53;2624605;54;20144;-61
2023/03/16 07:32:57;;;;;;;1.43;1.33;;;;;;;11.11;100.00;100377.28;2623890;54;20177;-57
2023/03/16 07:35:28;;;;;;;4.70;3.83;;;;;;;10.91;100.00;100382.19;2624515;54;20146;-59
2023/03/16 07:37:58;;;;;;;4.87;4.43;;;;;;;10.43;100.00;100381.84;2624479;54;20188;-59
2023/03/16 07:40:28;;;;;;;5.60;3.43;;;;;;;10.21;100.00;100385.00;2625181;39;20739;-59
2023/03/16 07:43:00;;;;;;;9.13;6.03;;;;;;;10.37;100.00;100390.03;2623007;54;20181;-55
2023/03/16 07:45:30;;;;;;;10.80;8.13;;;;;;;9.97;100.00;100396.03;2623425;54;20169;-59
2023/03/16 07:48:03;;;;;;;5.33;3.87;;;;;;;10.02;100.00;100394.00;2623731;54;20196;-58
2023/03/16 07:50:33;;;;;;;8.83;3.97;;;;;;;9.95;100.00;100401.31;2623861;54;20169;-52
2023/03/16 07:53:04;;;;;;;9.77;6.67;;;;;;;10.04;100.00;100392.97;2623624;54;20222;-55
2023/03/16 07:55:35;;;;;;;14.33;8.43;;;;;;;10.15;100.00;100407.91;2623721;54;20157;-56
2023/03/16 07:58:06;;;;;;;6.80;4.33;;;;;;;10.02;100.00;100407.78;2622962;54;20181;-53
2023/03/16 08:00:36;;;;;;;11.57;6.63;;;;;;;9.91;100.00;100401.63;2623686;54;20173;-54
2023/03/16 08:03:09;;;;;;;3.77;3.47;;;;;;;9.88;100.00;100403.47;2623463;47;20201;-55
2023/03/16 08:05:39;;;;;;;10.40;6.00;;;;;;;10.04;100.00;100403.34;2623888;47;20173;-58
2023/03/16 08:08:10;;;;;;;9.17;3.70;;;;;;;10.34;100.00;100403.19;2623744;54;20442;-56
2023/03/16 08:10:40;;;;;;;9.60;7.13;;;;;;;10.23;100.00;100414.22;2623373;54;20229;-58
2023/03/16 08:13:10;;;;;;;2.13;1.37;;;;;;;10.03;100.00;100413.81;2623365;46;20197;-53
2023/03/16 08:15:41;;;;;;;5.70;5.07;;;;;;;10.22;100.00;100416.94;2623653;54;20256;-56
2023/03/16 08:18:13;;;;;;;8.30;5.43;;;;;;;10.23;100.00;100411.63;2623385;54;20204;-57
2023/03/16 08:20:44;;;;;;;16.03;11.90;;;;;;;10.24;100.00;100413.31;2623500;54;20157;-55
2023/03/16 08:23:14;;;;;;;1.07;0.47;;;;;;;10.67;100.00;100410.59;2622909;54;20185;-59
2023/03/16 08:25:45;;;;;;;3.43;3.13;;;;;;;10.82;100.00;100416.53;2623660;54;20264;-59
2023/03/16 08:28:16;;;;;;;5.33;5.03;;;;;;;11.41;100.00;100423.75;2623355;54;20193;-60
2023/03/16 08:30:47;;;;;;;11.43;5.60;;;;;;;11.12;100.00;100425.69;2624391;39;20362;-59
2023/03/16 08:33:21;;;;;;;12.67;8.83;;;;;;;10.00;100.00;100432.13;2623382;54;20193;-56
2023/03/16 08:35:52;;;;;;;9.13;8.40;;;;;;;9.92;100.00;100435.19;2623697;54;20160;-56
2023/03/16 08:38:22;;;;;;;2.67;2.30;;;;;;;10.09;100.00;100436.75;2624254;47;20188;-58
2023/03/16 08:40:53;;;;;;;11.83;7.80;;;;;;;9.99;100.00;100439.06;2624259;54;20149;-56
2023/03/16 08:43:23;;;;;;;6.27;4.93;;;;;;;9.84;100.00;100443.44;2624231;54;20200;-53
2023/03/16 08:45:53;;;;;;;0.07;0.07;;;;;;;10.50;100.00;100434.16;2624578;54;20141;-56
2023/03/16 08:48:26;;;;;;;2.70;2.47;;;;;;;10.29;100.00;100450.16;2623743;54;20181;-55
2023/03/16 08:50:56;;;;;;;14.60;6.97;;;;;;;9.86;100.00;100448.53;2624398;54;20160;-57
2023/03/16 08:53:27;;;;;;;11.27;5.10;;;;;;;9.69;100.00;100436.59;2624089;54;20220;-57
2023/03/16 08:56:03;;;;;;;4.93;3.60;;;;;;;9.89;100.00;100427.63;2624241;54;20150;-56
2023/03/16 08:58:34;;;;;;;8.37;5.80;;;;;;;9.95;100.00;100449.75;2623832;54;20203;-60
2023/03/16 09:01:07;;;;;;;12.90;8.73;;;;;;;10.02;100.00;100445.84;2624515;54;20422;-66
2023/03/16 09:03:41;;;;;;;15.97;9.87;;;;;;;9.58;100.00;100441.59;2624332;54;20193;-54
2023/03/16 09:06:13;;;;;;;6.50;5.70;;;;;;;10.07;100.00;100443.81;2624737;47;20213;-61
2023/03/16 09:08:44;;;;;;;3.90;2.23;;;;;;;9.65;100.00;100445.47;2625140;46;20187;-57
2023/03/16 09:11:16;;;;;;;6.60;5.27;;;;;;;9.82;100.00;100434.94;2624889;54;20150;-57
2023/03/16 09:13:47;;;;;;;7.93;6.00;;;;;;;9.99;100.00;100441.66;2624908;54;20214;-58
2023/03/16 09:16:19;;;;;;;1.53;1.17;;;;;;;10.67;100.00;100439.13;2624829;54;20165;-57
2023/03/16 09:18:52;;;;;;;4.33;3.30;;;;;;;10.61;100.00;100440.34;2624869;54;20182;-58
2023/03/16 09:21:23;;;;;;;6.43;5.10;;;;;;;10.90;100.00;100440.22;2624982;39;20303;-56
2023/03/16 09:23:53;;;;;;;2.30;2.20;;;;;;;10.54;100.00;100449.44;2623584;50;20197;-56
2023/03/16 09:26:24;;;;;;;3.70;3.30;;;;;;;10.46;100.00;100436.13;2624100;54;20149;-60
2023/03/16 09:28:54;;;;;;;4.83;0.87;;;;;;;10.63;100.00;100448.03;2624122;54;20191;-56
2023/03/16 09:31:24;;;;;;;9.00;5.73;;;;;;;10.57;100.00;100451.00;2622543;54;20157;-57
2023/03/16 09:33:57;;;;;;;13.17;8.47;;;;;;;10.70;100.00;100465.69;2623790;54;20195;-59
2023/03/16 09:36:27;;;;;;;2.67;1.37;;;;;;;10.71;100.00;100463.94;2623477;54;20158;-58
2023/03/16 09:38:57;;;;;;;3.23;2.47;;;;;;;10.64;100.00;100460.03;2623924;54;20177;-54
2023/03/16 09:41:42;;;;;;;6.13;4.40;;;;;;;10.92;100.00;100466.88;2624293;54;20253;-55
2023/03/16 09:44:28;;;;;;;10.27;7.33;;;;;;;10.27;100.00;100475.34;2623969;54;20177;-56
2023/03/16 09:47:00;;;;;;;8.53;3.67;;;;;;;10.52;100.00;100466.00;2624120;54;20153;-56
2023/03/16 09:49:38;;;;;;;12.50;6.70;;;;;;;10.20;100.00;100479.25;2623804;54;20203;-54
2023/03/16 09:52:19;;;;;;;6.93;4.40;;;;;;;10.01;100.00;100470.09;2623996;54;20180;-54
2023/03/16 09:54:55;;;;;;;3.33;3.13;;;;;;;10.52;100.00;100469.44;2624374;54;20169;-60
2023/03/16 09:57:29;;;;;;;10.43;5.10;;;;;;;10.44;100.00;100469.09;2623469;54;20157;-59
2023/03/16 10:00:04;;;;;;;4.23;1.83;;;;;;;10.54;100.00;100480.56;2624700;39;20302;-57
2023/03/16 10:02:49;;;;;;;3.67;2.07;;;;;;;10.62;100.00;100480.09;2623633;54;20200;-57
2023/03/16 10:05:26;;;;;;;5.47;2.47;;;;;;;10.68;100.00;100477.91;2623275;54;20153;-58
2023/03/16 10:08:15;;;;;;;10.90;6.50;;;;;;;10.66;100.00;100463.38;2622364;47;20685;-62
2023/03/16 10:11:14;;;;;;;15.00;6.80;;;;;;;10.26;100.00;100485.81;2624364;54;20437;-57
2023/03/16 10:13:49;;;;;;;4.83;2.53;;;;;;;10.11;100.00;100484.97;2623682;47;20229;-62
2023/03/16 10:16:23;;;;;;;8.93;4.57;;;;;;;10.29;100.00;100483.03;2624238;54;20148;-55
2023/03/16 10:19:02;;;;;;;7.33;2.40;;;;;;;10.37;100.00;100483.38;2623969;54;20185;-55
2023/03/16 10:21:40;;;;;;;9.53;3.87;;;;;;;9.93;100.00;100483.50;2624319;47;20157;-55
2023/03/16 10:24:27;;;;;;;11.23;4.63;;;;;;;9.88;100.00;100475.16;2623962;47;20196;-58
2023/03/16 10:27:01;;;;;;;9.90;5.93;;;;;;;9.79;100.00;100491.25;2624156;54;20410;-54
2023/03/16 10:29:35;;;;;;;14.33;9.47;;;;;;;9.87;100.00;100484.69;2623941;54;20203;-59
2023/03/16 10:32:15;;;;;;;6.17;2.63;;;;;;;9.85;100.00;100485.72;2624147;54;20159;-59
2023/03/16 10:34:50;;;;;;;6.07;4.00;;;;;;;9.79;100.00;100488.66;2624176;54;20414;-55
2023/03/16 10:37:23;;;;;;;4.17;2.67;;;;;;;9.73;100.00;100497.66;2623514;54;20153;-56
2023/03/16 10:39:55;;;;;;;13.00;7.63;;;;;;;9.33;100.00;100477.63;2623839;47;20196;-56
2023/03/16 10:42:26;;;;;;;3.57;2.43;;;;;;;9.39;100.00;100485.03;2624026;54;20165;-52
2023/03/16 10:45:00;;;;;;;4.73;2.90;;;;;;;9.54;100.00;100496.25;2623949;54;20165;-53
2023/03/16 10:47:34;;;;;;;3.27;2.00;;;;;;;9.43;100.00;100473.56;2623831;47;20453;-55
2023/03/16 10:50:15;;;;;;;4.30;3.90;;;;;;;9.42;100.00;100490.06;2623561;54;20146;-56
2023/03/16 10:52:52;;;;;;;4.77;3.83;;;;;;;9.44;100.00;100493.38;2623739;54;20256;-61
2023/03/16 10:55:25;;;;;;;8.93;5.63;;;;;;;9.38;100.00;100491.16;2623827;47;20181;-53
2023/03/16 10:57:57;;;;;;;4.70;1.50;;;;;;;9.31;100.00;100484.63;2623680;54;20193;-54
2023/03/16 11:00:37;;;;;;;5.57;3.33;;;;;;;9.33;100.00;100485.41;2623891;54;20157;-56
2023/03/16 11:03:23;;;;;;;7.90;4.17;;;;;;;9.16;100.00;100485.53;2623232;47;20216;-55
2023/03/16 11:06:02;;;;;;;1.03;1.00;;;;;;;9.31;100.00;100485.47;2623805;54;20146;-57
2023/03/16 11:08:40;;;;;;;2.53;1.80;;;;;;;9.36;100.00;100492.97;2623757;47;20273;-58
2023/03/16 11:11:13;;;;;;;3.80;2.57;;;;;;;9.27;100.00;100506.44;2624182;39;20309;-57
2023/03/16 11:13:47;;;;;;;3.80;2.50;;;;;;;9.12;100.00;100489.22;2623360;54;20257;-54
2023/03/16 11:16:26;;;;;;;1.33;1.13;;;;;;;9.26;100.00;100486.69;2623892;54;20142;-58
2023/03/16 11:19:00;;;;;;;2.43;2.17;;;;;;;9.22;100.00;100518.84;2623550;54;20190;-55
2023/03/16 11:21:40;;;;;;;4.90;1.70;;;;;;;9.16;100.00;100499.31;2623755;51;20142;-54
2023/03/16 11:24:21;;;;;;;4.93;2.60;;;;;;;9.19;100.00;100500.88;2623519;54;20203;-54
2023/03/16 11:26:56;;;;;;;2.00;1.73;;;;;;;9.08;100.00;100516.19;2623374;54;20169;-57
2023/03/16 11:29:34;;;;;;;1.90;1.33;;;;;;;9.05;100.00;100495.69;2623681;54;20223;-56
2023/03/16 11:32:07;;;;;;;1.80;0.90;;;;;;;9.11;100.00;100506.50;2623717;47;20141;-55
2023/03/16 11:34:37;;;;;;;2.30;2.10;;;;;;;9.02;100.00;100513.97;2623595;47;20232;-57
2023/03/16 11:37:18;;;;;;;0.80;0.80;;;;;;;9.07;100.00;100520.53;2623756;54;20265;-52
2023/03/16 11:40:00;;;;;;;4.53;2.60;;;;;;;9.05;100.00;100516.38;2623285;54;20169;-56
2023/03/16 11:42:35;;;;;;;2.00;1.47;;;;;;;8.93;100.00;100531.69;2623413;54;20150;-57